createdAt,value
2022-08-07T00:00:45.976Z,17.97
2022-08-07T00:03:36.788Z,17.92
2022-08-07T00:06:29.764Z,18.00
2022-08-07T00:09:35.564Z,17.86
2022-08-07T00:12:23.917Z,17.96
2022-08-07T00:15:13.854Z,17.91
2022-08-07T00:18:03.032Z,17.79
2022-08-07T00:20:51.260Z,17.79
2022-08-07T00:23:41.925Z,17.76
2022-08-07T00:26:49.465Z,17.77
2022-08-07T00:29:37.925Z,17.72
2022-08-07T00:32:28.377Z,17.72
2022-08-07T00:35:16.723Z,17.64
2022-08-07T00:38:06.162Z,17.63
2022-08-07T00:40:55.704Z,17.56
2022-08-07T00:44:01.991Z,17.63
2022-08-07T00:46:51.515Z,17.54
2022-08-07T00:50:19.096Z,17.51
2022-08-07T00:52:48.805Z,17.52
2022-08-07T00:56:02.630Z,17.42
2022-08-07T00:58:49.811Z,17.49
2022-08-07T01:01:44.543Z,17.46
2022-08-07T01:04:36.393Z,17.48
2022-08-07T01:07:31.555Z,17.43
2022-08-07T01:10:20.731Z,17.47
2022-08-07T01:13:09.207Z,17.46
2022-08-07T01:16:00.945Z,17.42
2022-08-07T01:18:54.416Z,17.39
2022-08-07T01:21:46.163Z,17.31
2022-08-07T01:24:35.434Z,17.36
2022-08-07T01:27:24.078Z,17.39
2022-08-07T01:30:21.279Z,17.31
2022-08-07T01:33:16.514Z,17.22
2022-08-07T01:36:08.717Z,17.22
2022-08-07T01:39:04.159Z,17.25
2022-08-07T01:42:07.706Z,17.27
2022-08-07T01:45:10.062Z,17.11
2022-08-07T01:48:19.182Z,16.97
2022-08-07T01:52:02.176Z,16.95
2022-08-07T01:54:37.219Z,16.95
2022-08-07T01:58:05.858Z,16.94
2022-08-07T02:00:48.939Z,16.92
2022-08-07T02:03:50.187Z,16.84
2022-08-07T02:06:42.148Z,16.84
2022-08-07T02:09:52.996Z,16.85
2022-08-07T02:12:46.299Z,16.84
2022-08-07T02:15:42.730Z,16.84
2022-08-07T02:18:33.954Z,16.85
2022-08-07T02:21:25.890Z,16.77
2022-08-07T02:24:17.630Z,16.72
2022-08-07T02:27:08.648Z,16.71
2022-08-07T02:29:58.956Z,16.73
2022-08-07T02:33:00.408Z,16.67
2022-08-07T02:36:29.776Z,16.65
2022-08-07T02:39:09.277Z,16.56
2022-08-07T02:42:14.943Z,16.55
2022-08-07T02:45:58.749Z,16.30
2022-08-07T02:48:19.790Z,16.50
2022-08-07T02:51:28.884Z,16.48
2022-08-07T02:54:27.088Z,16.62
2022-08-07T02:57:19.527Z,16.70
2022-08-07T03:00:11.925Z,16.76
2022-08-07T03:03:06.006Z,16.84
2022-08-07T03:05:58.165Z,16.76
2022-08-07T03:08:46.995Z,16.66
2022-08-07T03:11:38.570Z,16.58
2022-08-07T03:14:31.053Z,16.57
2022-08-07T03:17:19.397Z,16.72
2022-08-07T03:20:12.106Z,16.64
2022-08-07T03:23:03.590Z,16.55
2022-08-07T03:25:56.758Z,16.54
2022-08-07T03:28:47.584Z,16.46
2022-08-07T03:31:46.589Z,16.56
2022-08-07T03:34:40.168Z,16.41
2022-08-07T03:37:46.356Z,16.31
2022-08-07T03:40:44.424Z,16.32
2022-08-07T03:43:36.103Z,16.40
2022-08-07T03:46:27.636Z,16.32
2022-08-07T03:49:20.165Z,16.50
2022-08-07T03:52:22.638Z,16.52
2022-08-07T03:55:15.941Z,16.53
2022-08-07T03:58:32.675Z,16.32
2022-08-07T04:01:17.284Z,16.42
2022-08-07T04:04:08.544Z,16.36
2022-08-07T04:07:16.717Z,16.24
2022-08-07T04:10:19.391Z,16.33
2022-08-07T04:13:15.431Z,16.37
2022-08-07T04:16:05.218Z,16.38
2022-08-07T04:19:01.792Z,16.15
2022-08-07T04:22:05.377Z,16.12
2022-08-07T04:25:02.333Z,16.30
2022-08-07T04:27:58.999Z,16.18
2022-08-07T04:30:57.087Z,16.27
2022-08-07T04:33:56.425Z,16.29
2022-08-07T04:36:48.857Z,16.39
2022-08-07T04:39:38.645Z,16.33
2022-08-07T04:42:37.956Z,16.27
2022-08-07T04:45:57.574Z,16.24
2022-08-07T04:48:57.035Z,16.24
2022-08-07T04:51:57.606Z,16.23
2022-08-07T04:54:55.855Z,16.13
2022-08-07T04:58:09.810Z,16.06
2022-08-07T05:01:15.765Z,15.91
2022-08-07T05:04:12.315Z,15.80
2022-08-07T05:07:20.471Z,15.64
2022-08-07T05:10:17.314Z,15.43
2022-08-07T05:14:52.323Z,15.37
2022-08-07T05:16:21.414Z,15.31
2022-08-07T05:19:16.479Z,15.27
2022-08-07T05:22:10.077Z,15.26
2022-08-07T05:25:01.640Z,15.21
2022-08-07T05:28:02.928Z,15.18
2022-08-07T05:31:12.395Z,15.33
2022-08-07T05:34:05.804Z,15.25
2022-08-07T05:37:00.708Z,15.51
2022-08-07T05:40:05.937Z,15.77
2022-08-07T05:43:02.646Z,15.69
2022-08-07T05:45:52.495Z,15.54
2022-08-07T05:48:58.032Z,15.44
2022-08-07T05:51:48.164Z,15.26
2022-08-07T05:54:53.882Z,15.31
2022-08-07T05:57:47.161Z,15.48
2022-08-07T06:00:38.152Z,15.54
2022-08-07T06:03:53.711Z,15.65
2022-08-07T06:06:46.116Z,15.83
2022-08-07T06:09:56.595Z,15.98
2022-08-07T06:12:44.570Z,16.05
2022-08-07T06:15:39.452Z,16.24
2022-08-07T06:18:35.145Z,16.38
2022-08-07T06:22:15.815Z,16.37
2022-08-07T06:24:46.200Z,16.46
2022-08-07T06:27:44.115Z,16.70
2022-08-07T06:30:51.836Z,16.70
2022-08-07T06:33:43.080Z,16.96
2022-08-07T06:36:35.805Z,17.12
2022-08-07T06:40:15.682Z,17.26
2022-08-07T06:42:38.052Z,17.46
2022-08-07T06:45:49.695Z,17.40
2022-08-07T06:48:37.996Z,17.60
2022-08-07T06:51:34.520Z,17.78
2022-08-07T06:55:31.567Z,18.24
2022-08-07T06:57:48.372Z,18.48
2022-08-07T07:00:45.532Z,18.57
2022-08-07T07:03:47.900Z,18.73
2022-08-07T07:06:57.325Z,18.98
2022-08-07T07:09:47.166Z,19.41
2022-08-07T07:12:48.791Z,19.51
2022-08-07T07:15:51.519Z,19.88
2022-08-07T07:18:48.110Z,20.28
2022-08-07T07:22:11.727Z,20.78
2022-08-07T07:24:58.497Z,21.30
2022-08-07T07:28:02.814Z,21.63
2022-08-07T07:30:56.957Z,22.46
2022-08-07T07:33:56.463Z,22.97
2022-08-07T07:36:47.853Z,23.75
2022-08-07T07:39:52.048Z,24.29
2022-08-07T07:42:47.223Z,24.73
2022-08-07T07:46:38.222Z,25.28
2022-08-07T07:48:51.587Z,25.04
2022-08-07T07:51:57.463Z,25.01
2022-08-07T07:54:51.302Z,24.99
2022-08-07T07:57:44.048Z,25.09
2022-08-07T08:00:48.707Z,25.62
2022-08-07T08:04:09.796Z,25.75
2022-08-07T08:06:54.269Z,25.79
2022-08-07T08:09:52.066Z,25.80
2022-08-07T08:12:59.789Z,25.29
2022-08-07T08:15:58.536Z,24.93
2022-08-07T08:18:50.418Z,24.42
2022-08-07T08:22:03.142Z,24.52
2022-08-07T08:25:24.865Z,24.50
2022-08-07T08:28:37.889Z,24.40
2022-08-07T08:32:10.163Z,24.35
2022-08-07T08:34:53.812Z,24.32
2022-08-07T08:38:00.901Z,24.60
2022-08-07T08:40:55.932Z,24.80
2022-08-07T08:43:56.178Z,24.92
2022-08-07T08:46:55.806Z,24.70
2022-08-07T08:50:04.843Z,24.88
2022-08-07T08:53:03.497Z,25.08
2022-08-07T08:55:58.936Z,25.06
2022-08-07T08:58:54.534Z,25.33
2022-08-07T09:01:49.162Z,25.35
2022-08-07T09:04:46.661Z,25.37
2022-08-07T09:07:57.466Z,25.39
2022-08-07T09:10:54.010Z,25.62
2022-08-07T09:13:55.721Z,25.69
2022-08-07T09:17:01.041Z,25.93
2022-08-07T09:19:59.093Z,25.92
2022-08-07T09:24:33.530Z,26.27
2022-08-07T09:26:20.918Z,26.27
2022-08-07T09:30:00.735Z,26.56
2022-08-07T09:32:33.157Z,25.72
2022-08-07T09:36:04.741Z,26.05
2022-08-07T09:39:00.182Z,26.33
2022-08-07T09:42:09.373Z,26.40
2022-08-07T09:47:24.422Z,25.94
2022-08-07T09:48:43.936Z,26.59
2022-08-07T09:52:09.874Z,27.24
2022-08-07T09:55:05.453Z,26.85
2022-08-07T09:58:32.467Z,26.98
2022-08-07T10:01:51.223Z,26.81
2022-08-07T10:05:12.088Z,27.05
2022-08-07T10:08:17.586Z,26.82
2022-08-07T10:12:00.592Z,26.79
2022-08-07T10:14:42.559Z,26.88
2022-08-07T10:18:02.912Z,27.05
2022-08-07T10:21:20.006Z,26.85
2022-08-07T10:24:50.616Z,26.82
2022-08-07T10:28:04.310Z,26.99
2022-08-07T10:31:11.166Z,26.31
2022-08-07T10:34:18.174Z,26.86
2022-08-07T10:38:00.949Z,27.25
2022-08-07T10:40:49.352Z,27.20
2022-08-07T10:43:44.095Z,27.04
2022-08-07T10:46:42.322Z,27.18
2022-08-07T10:49:49.236Z,27.41
2022-08-07T10:52:51.191Z,26.96
2022-08-07T10:55:50.238Z,27.32
2022-08-07T10:58:59.868Z,27.45
2022-08-07T11:02:05.142Z,27.55
2022-08-07T11:05:49.033Z,28.13
2022-08-07T11:08:44.580Z,28.18
2022-08-07T11:11:37.951Z,28.29
2022-08-07T11:14:45.763Z,28.19
2022-08-07T11:17:45.758Z,27.93
2022-08-07T11:20:42.871Z,27.83
2022-08-07T11:23:40.503Z,27.93
2022-08-07T11:26:38.483Z,27.53
2022-08-07T11:29:42.763Z,28.10
2022-08-07T11:32:40.583Z,27.70
2022-08-07T11:35:35.115Z,27.80
2022-08-07T11:38:50.854Z,28.07
2022-08-07T11:42:00.350Z,28.41
2022-08-07T11:44:57.533Z,27.86
2022-08-07T11:48:02.695Z,27.98
2022-08-07T11:51:09.992Z,28.01
2022-08-07T11:54:10.385Z,28.53
2022-08-07T11:57:12.563Z,28.55
2022-08-07T12:00:18.707Z,28.37
2022-08-07T12:03:41.441Z,28.93
2022-08-07T12:06:51.625Z,28.60
2022-08-07T12:09:51.928Z,28.57
2022-08-07T12:12:47.440Z,28.66
2022-08-07T12:16:05.646Z,28.76
2022-08-07T12:18:54.553Z,28.64
2022-08-07T12:22:39.273Z,28.69
2022-08-07T12:26:21.572Z,28.77
2022-08-07T12:28:44.887Z,28.62
2022-08-07T12:31:52.972Z,29.14
2022-08-07T12:34:55.698Z,29.30
2022-08-07T12:38:11.324Z,28.95
2022-08-07T12:41:00.375Z,29.27
2022-08-07T12:44:03.586Z,29.46
2022-08-07T12:47:06.398Z,29.72
2022-08-07T12:50:04.838Z,29.19
2022-08-07T12:53:00.949Z,29.35
2022-08-07T12:56:09.288Z,29.24
2022-08-07T12:59:01.728Z,29.05
2022-08-07T13:02:02.875Z,28.57
2022-08-07T13:06:02.037Z,28.88
2022-08-07T13:08:27.184Z,29.39
2022-08-07T13:11:30.767Z,29.25
2022-08-07T13:14:56.775Z,29.57
2022-08-07T13:17:52.646Z,29.53
2022-08-07T13:20:52.521Z,29.85
2022-08-07T13:24:02.185Z,29.47
2022-08-07T13:26:58.545Z,29.82
2022-08-07T13:29:59.023Z,29.49
2022-08-07T13:32:57.186Z,29.65
2022-08-07T13:36:00.605Z,29.73
2022-08-07T13:38:57.556Z,29.84
2022-08-07T13:41:50.301Z,29.68
2022-08-07T13:44:44.450Z,29.77
2022-08-07T13:48:05.879Z,29.94
2022-08-07T13:51:01.368Z,29.70
2022-08-07T13:54:00.874Z,29.68
2022-08-07T13:56:52.043Z,29.98
2022-08-07T13:59:48.284Z,29.74
2022-08-07T14:02:49.526Z,29.46
2022-08-07T14:05:46.279Z,29.52
2022-08-07T14:08:44.145Z,29.85
2022-08-07T14:11:53.195Z,29.39
2022-08-07T14:14:49.279Z,29.62
2022-08-07T14:18:27.443Z,29.70
2022-08-07T14:20:54.977Z,29.82
2022-08-07T14:24:00.473Z,29.99
2022-08-07T14:26:52.561Z,29.59
2022-08-07T14:30:08.059Z,29.46
2022-08-07T14:32:56.260Z,29.51
2022-08-07T14:35:47.626Z,29.21
2022-08-07T14:38:37.367Z,29.53
2022-08-07T14:41:33.938Z,29.94
2022-08-07T14:44:38.895Z,29.96
2022-08-07T14:47:32.190Z,29.59
2022-08-07T14:50:23.644Z,29.73
2022-08-07T14:53:13.867Z,29.87
2022-08-07T14:56:06.608Z,30.09
2022-08-07T14:59:13.913Z,29.61
2022-08-07T15:02:34.152Z,29.43
2022-08-07T15:05:23.670Z,29.20
2022-08-07T15:08:13.978Z,29.50
2022-08-07T15:11:07.264Z,29.74
2022-08-07T15:14:00.003Z,29.62
2022-08-07T15:17:02.240Z,29.57
2022-08-07T15:20:33.021Z,29.67
2022-08-07T15:23:20.200Z,29.50
2022-08-07T15:26:21.129Z,29.41
2022-08-07T15:30:08.843Z,29.18
2022-08-07T15:36:01.970Z,29.25
2022-08-07T15:42:43.667Z,29.46
2022-08-07T15:45:14.279Z,29.51
2022-08-07T15:48:20.252Z,29.29
2022-08-07T15:51:11.905Z,29.24
2022-08-07T15:54:04.293Z,29.06
2022-08-07T15:56:53.411Z,29.03
2022-08-07T15:59:47.122Z,29.02
2022-08-07T16:02:40.692Z,29.18
2022-08-07T16:05:31.013Z,29.05
2022-08-07T16:08:33.456Z,29.16
2022-08-07T16:11:44.081Z,29.09
2022-08-07T16:14:43.683Z,29.09
2022-08-07T16:18:02.917Z,29.01
2022-08-07T16:22:02.446Z,28.75
2022-08-07T16:24:33.744Z,29.24
2022-08-07T16:27:40.791Z,29.23
2022-08-07T16:30:35.386Z,28.73
2022-08-07T16:34:02.435Z,28.89
2022-08-07T16:37:01.974Z,29.04
2022-08-07T16:40:23.309Z,29.12
2022-08-07T16:44:06.333Z,28.98
2022-08-07T16:47:12.479Z,29.17
2022-08-07T16:50:36.906Z,30.69
2022-08-07T16:54:06.132Z,32.02
2022-08-07T16:57:15.350Z,33.56
2022-08-07T17:00:13.344Z,33.61
2022-08-07T17:03:17.250Z,34.78
2022-08-07T17:06:30.414Z,34.22
2022-08-07T17:10:06.913Z,34.42
2022-08-07T17:12:46.413Z,35.35
2022-08-07T17:15:44.183Z,34.12
2022-08-07T17:18:41.611Z,31.01
2022-08-07T17:21:51.591Z,28.98
2022-08-07T17:25:01.557Z,27.88
2022-08-07T17:27:59.378Z,27.34
2022-08-07T17:30:58.189Z,26.92
2022-08-07T17:34:18.226Z,26.38
2022-08-07T17:37:09.099Z,26.29
2022-08-07T17:40:10.631Z,26.08
2022-08-07T17:43:15.087Z,25.82
2022-08-07T17:46:14.753Z,25.60
2022-08-07T17:49:09.706Z,25.32
2022-08-07T17:52:05.546Z,25.25
2022-08-07T17:55:05.624Z,25.13
2022-08-07T17:58:04.119Z,25.09
2022-08-07T18:00:57.430Z,25.08
2022-08-07T18:04:06.988Z,24.96
2022-08-07T18:07:20.776Z,24.73
2022-08-07T18:10:29.053Z,24.52
2022-08-07T18:13:40.823Z,24.45
2022-08-07T18:16:34.134Z,24.22
2022-08-07T18:21:04.366Z,24.12
2022-08-07T18:22:49.697Z,23.97
2022-08-07T18:25:44.734Z,23.85
2022-08-07T18:28:58.596Z,23.69
2022-08-07T18:32:08.031Z,23.45
2022-08-07T18:35:13.266Z,23.20
2022-08-07T18:38:59.081Z,23.04
2022-08-07T18:41:45.182Z,22.83
2022-08-07T18:45:39.916Z,22.66
2022-08-07T18:48:01.589Z,22.43
2022-08-07T18:51:09.668Z,22.24
2022-08-07T18:54:27.706Z,22.08
2022-08-07T18:57:31.602Z,21.87
2022-08-07T19:00:42.249Z,21.63
2022-08-07T19:03:49.772Z,21.42
2022-08-07T19:06:49.601Z,21.27
2022-08-07T19:09:56.659Z,21.10
2022-08-07T19:12:58.288Z,20.85
2022-08-07T19:16:43.614Z,20.71
2022-08-07T19:19:19.636Z,20.52
2022-08-07T19:22:31.380Z,20.35
2022-08-07T19:26:23.075Z,20.30
2022-08-07T19:30:55.987Z,20.24
2022-08-07T19:32:08.256Z,20.12
2022-08-07T19:35:02.908Z,20.00
2022-08-07T19:37:58.248Z,19.77
2022-08-07T19:40:51.845Z,19.80
2022-08-07T19:43:49.475Z,19.78
2022-08-07T19:46:55.855Z,19.78
2022-08-07T19:49:57.256Z,19.65
2022-08-07T19:52:46.853Z,19.58
2022-08-07T19:55:57.645Z,19.57
2022-08-07T19:58:53.080Z,19.47
2022-08-07T20:01:57.150Z,19.44
2022-08-07T20:04:49.439Z,19.48
2022-08-07T20:07:47.291Z,19.46
2022-08-07T20:10:54.707Z,19.46
2022-08-07T20:13:48.284Z,19.63
2022-08-07T20:16:38.278Z,19.62
2022-08-07T20:19:49.402Z,19.66
2022-08-07T20:22:47.021Z,19.72
2022-08-07T20:25:40.039Z,19.74
2022-08-07T20:28:31.697Z,19.76
2022-08-07T20:31:23.229Z,19.72
2022-08-07T20:34:13.741Z,19.75
2022-08-07T20:37:05.500Z,19.77
2022-08-07T20:40:03.730Z,19.78
2022-08-07T20:42:56.612Z,19.88
2022-08-07T20:46:27.302Z,19.96
2022-08-07T20:50:01.249Z,19.93
2022-08-07T20:52:24.424Z,19.98
2022-08-07T20:55:18.229Z,20.06
2022-08-07T20:58:08.997Z,19.98
2022-08-07T21:01:19.324Z,19.94
2022-08-07T21:04:25.644Z,19.83
2022-08-07T21:07:19.522Z,19.70
2022-08-07T21:10:14.800Z,19.65
2022-08-07T21:13:15.128Z,19.60
2022-08-07T21:16:06.547Z,19.58
2022-08-07T21:18:57.577Z,19.52
2022-08-07T21:21:57.132Z,19.47
2022-08-07T21:24:56.239Z,19.42
2022-08-07T21:28:02.014Z,19.42
2022-08-07T21:30:57.872Z,19.44
2022-08-07T21:33:50.953Z,19.43
2022-08-07T21:36:50.181Z,19.40
2022-08-07T21:39:55.084Z,19.28
2022-08-07T21:42:51.054Z,19.31
2022-08-07T21:46:08.946Z,19.25
2022-08-07T21:48:57.936Z,19.36
2022-08-07T21:52:03.163Z,19.36
2022-08-07T21:55:06.599Z,19.38
2022-08-07T21:58:06.235Z,19.35
2022-08-07T22:01:00.484Z,19.35
2022-08-07T22:03:58.872Z,19.29
2022-08-07T22:06:58.974Z,19.26
2022-08-07T22:09:54.404Z,19.20
2022-08-07T22:12:49.598Z,19.20
2022-08-07T22:16:39.130Z,19.23
2022-08-07T22:19:01.260Z,19.22
2022-08-07T22:22:05.321Z,19.38
2022-08-07T22:25:12.112Z,19.38
2022-08-07T22:28:30.792Z,19.37
2022-08-07T22:31:56.242Z,19.31
2022-08-07T22:34:53.699Z,19.37
2022-08-07T22:38:03.455Z,19.40
2022-08-07T22:40:59.880Z,19.42
2022-08-07T22:43:51.501Z,19.48
2022-08-07T22:47:20.098Z,19.61
2022-08-07T22:50:28.995Z,19.58
2022-08-07T22:54:05.386Z,19.60
2022-08-07T22:57:01.435Z,19.77
2022-08-07T23:00:01.669Z,19.70
2022-08-07T23:03:59.033Z,19.56
2022-08-07T23:06:59.444Z,19.53
2022-08-07T23:10:04.474Z,19.57
2022-08-07T23:13:49.279Z,19.46
2022-08-07T23:16:55.825Z,19.53
2022-08-07T23:20:14.176Z,19.83
2022-08-07T23:24:04.369Z,19.85
2022-08-07T23:26:50.377Z,19.89
2022-08-07T23:30:35.700Z,20.00
2022-08-07T23:34:34.243Z,20.03
2022-08-07T23:37:18.661Z,20.00
2022-08-07T23:40:11.770Z,19.93
2022-08-07T23:43:37.548Z,20.05
2022-08-07T23:46:50.810Z,20.13
2022-08-07T23:49:59.086Z,20.02
2022-08-07T23:53:01.038Z,20.05
2022-08-07T23:56:03.613Z,20.00
2022-08-07T23:59:00.397Z,20.01
